EGPN/DND METAR and TAF weather

Enter ICAO airport designator
Station Type Date Time Source
EGPN METAR 2020/01/21 20:20 UTC NOAA

EGPN 212020Z 28005KT 9999 FEW010 08/07 Q1036


Station Type Date Time Source
EGPN Decoded METAR 2020/01/21 20:20 UTC NOAA

Dundee / Riverside, United Kingdom (EGPN) 56-27N 003-01W
Jan 21, 2020 - 03:20 PM EST / 2020.01.21 2020 UTC
Wind: from the W (280 degrees) at 6 MPH (5 KT):0
Visibility: greater than 7 mile(s):0
Sky conditions: mostly clear
Temperature: 46 F (8 C)
Dew Point: 44 F (7 C)
Relative Humidity: 93%
Pressure (altimeter): 30.59 in. Hg (1036 hPa)
ob: EGPN 212020Z 28005KT 9999 FEW010 08/07 Q1036
cycle: 20

Station Type Date Time Source
EGPN TAF 2019/01/15 18:56 UTC NOAA

TAF EGPN 151750Z 1518/1621 CNL

Example: see airport list